Archival Weather

Chicago O'Hare International

Chicago, Illinois (KORD)

Report from: Saturday, March 5, 2022 4:51 AM CST
Current time: Saturday, February 4, 2023 10:02 PM CST

Current weather
Weather history
Weather forecast

Temperature4.4°C (39.9°F)
Wind chill1.1°C (33.9°F)
Dew point-3.9°C (25.0°F)
Winds 8 kts (4.1 m/s, 9.2 mph) Southeast (140°)
Visibility10 mi. (16.1 km)
Clouds Few clouds 14,000 ft. (4,267 m)
Altimeter29.99 in.Hg (1016 mB)
Relative humidity55 %
Density altitude-1,289 ft. (-393 m)
Sea-level pressure101.6 kPa (1016 mB, 30.00 in.Hg)
Remarks Automated weather observing station with precipitation discriminator
Flight conditions Visual Meteorological Conditions
Raw dataKORD 051051Z 14008KT 10SM FEW140 04/M04 A2999 RMK AO2 SLP160 T00441039
An unhandled exception has occurred. See browser dev tools for details. Reload 🗙